createdAt,value
2022-09-23T00:00:19.504Z,66.18
2022-09-23T00:04:06.573Z,66.35
2022-09-23T00:07:33.530Z,66.45
2022-09-23T00:11:05.043Z,66.39
2022-09-23T00:14:31.940Z,66.22
2022-09-23T00:22:29.195Z,65.82
2022-09-23T00:26:01.163Z,65.66
2022-09-23T00:29:28.101Z,65.99
2022-09-23T00:32:57.044Z,66.11
2022-09-23T00:36:23.797Z,66.05
2022-09-23T00:39:51.220Z,65.96
2022-09-23T00:43:17.832Z,66.01
2022-09-23T00:46:45.835Z,66.24
2022-09-23T00:50:18.370Z,66.46
2022-09-23T00:53:45.630Z,66.37
2022-09-23T00:57:17.083Z,66.51
2022-09-23T01:00:44.060Z,66.45
2022-09-23T01:04:11.341Z,66.30
2022-09-23T01:07:38.378Z,66.21
2022-09-23T01:11:14.465Z,66.09
2022-09-23T01:14:54.335Z,66.16
2022-09-23T01:18:34.758Z,66.38
2022-09-23T01:22:11.273Z,66.29
2022-09-23T01:25:57.792Z,66.18
2022-09-23T01:29:48.040Z,66.43
2022-09-23T01:33:21.442Z,66.45
2022-09-23T01:36:54.087Z,66.38
2022-09-23T01:40:25.969Z,66.56
2022-09-23T01:44:00.947Z,66.81
2022-09-23T01:47:32.536Z,66.85
2022-09-23T01:51:03.805Z,66.76
2022-09-23T01:54:39.003Z,66.70
2022-09-23T01:58:10.329Z,66.72
2022-09-23T02:01:43.268Z,66.84
2022-09-23T02:05:15.871Z,66.74
2022-09-23T02:08:47.435Z,66.80
2022-09-23T02:12:20.522Z,66.75
2022-09-23T02:15:52.104Z,66.71
2022-09-23T02:19:28.624Z,66.82
2022-09-23T02:23:03.597Z,66.80
2022-09-23T02:26:36.359Z,66.61
2022-09-23T02:30:09.856Z,66.66
2022-09-23T02:33:40.937Z,66.63
2022-09-23T02:37:17.799Z,66.94
2022-09-23T02:40:52.630Z,66.73
2022-09-23T02:44:22.900Z,66.86
2022-09-23T02:47:53.386Z,67.07
2022-09-23T02:51:20.553Z,66.92
2022-09-23T02:54:48.338Z,67.15
2022-09-23T02:58:16.026Z,67.08
2022-09-23T03:01:56.683Z,67.10
2022-09-23T03:05:30.405Z,66.94
2022-09-23T03:09:02.129Z,66.82
2022-09-23T03:12:37.726Z,66.77
2022-09-23T03:16:12.383Z,66.57
2022-09-23T03:19:46.182Z,66.76
2022-09-23T03:23:17.789Z,66.83
2022-09-23T03:26:48.495Z,66.89
2022-09-23T03:30:16.436Z,66.93
2022-09-23T03:33:48.616Z,66.89
2022-09-23T03:37:19.823Z,67.22
2022-09-23T03:40:51.296Z,67.00
2022-09-23T03:44:19.801Z,66.79
2022-09-23T03:47:48.012Z,67.21
2022-09-23T03:51:24.071Z,66.80
2022-09-23T03:54:52.353Z,67.07
2022-09-23T03:58:18.898Z,67.12
2022-09-23T04:01:46.208Z,67.30
2022-09-23T04:05:14.633Z,67.50
2022-09-23T04:08:42.381Z,67.42
2022-09-23T04:12:09.577Z,67.38
2022-09-23T04:15:36.265Z,67.38
2022-09-23T04:19:04.943Z,67.36
2022-09-23T04:22:32.047Z,67.04
2022-09-23T04:25:59.224Z,67.21
2022-09-23T04:29:26.444Z,67.10
2022-09-23T04:32:55.565Z,67.21
2022-09-23T04:36:22.983Z,66.98
2022-09-23T04:39:49.445Z,66.90
2022-09-23T04:43:16.610Z,67.14
2022-09-23T04:46:47.745Z,66.92
2022-09-23T04:50:14.513Z,66.80
2022-09-23T04:53:43.548Z,67.11
2022-09-23T04:57:11.217Z,67.17
2022-09-23T05:00:38.300Z,67.21
2022-09-23T05:04:07.944Z,67.18
2022-09-23T05:07:34.472Z,67.39
2022-09-23T05:11:02.768Z,67.47
2022-09-23T05:14:29.794Z,67.52
2022-09-23T05:17:58.966Z,67.44
2022-09-23T05:21:29.412Z,67.87
2022-09-23T05:24:56.714Z,67.76
2022-09-23T05:28:23.505Z,68.04
2022-09-23T05:31:50.580Z,68.00
2022-09-23T05:35:17.516Z,68.09
2022-09-23T05:38:44.426Z,67.91
2022-09-23T05:42:12.665Z,68.16
2022-09-23T05:45:39.868Z,68.02
2022-09-23T05:49:07.675Z,68.16
2022-09-23T05:52:35.163Z,68.43
2022-09-23T05:56:01.946Z,68.38
2022-09-23T05:59:28.658Z,68.18
2022-09-23T06:02:55.603Z,68.32
2022-09-23T06:06:27.192Z,68.48
2022-09-23T06:09:54.184Z,68.76
2022-09-23T06:13:20.883Z,69.08
2022-09-23T06:16:47.919Z,69.09
2022-09-23T06:20:14.673Z,69.34
2022-09-23T06:23:42.247Z,69.55
2022-09-23T06:27:11.210Z,69.72
2022-09-23T06:30:42.695Z,69.82
2022-09-23T06:34:13.203Z,70.07
2022-09-23T06:37:41.112Z,70.19
2022-09-23T06:41:08.209Z,70.31
2022-09-23T06:44:34.854Z,70.38
2022-09-23T06:48:05.186Z,70.43
2022-09-23T06:51:31.895Z,70.38
2022-09-23T06:54:58.887Z,70.56
2022-09-23T06:58:27.146Z,70.65
2022-09-23T07:01:54.148Z,70.61
2022-09-23T07:05:22.655Z,70.87
2022-09-23T07:08:51.461Z,70.61
2022-09-23T07:12:18.513Z,70.77
2022-09-23T07:15:50.963Z,70.80
2022-09-23T07:19:17.986Z,70.94
2022-09-23T07:22:44.520Z,70.89
2022-09-23T07:26:11.389Z,71.23
2022-09-23T07:29:47.105Z,71.46
2022-09-23T07:33:28.294Z,71.76
2022-09-23T07:36:58.457Z,71.52
2022-09-23T07:40:25.224Z,71.32
2022-09-23T07:43:55.956Z,71.60
2022-09-23T07:47:23.514Z,71.58
2022-09-23T07:50:50.841Z,71.45
2022-09-23T07:54:18.952Z,71.38
2022-09-23T07:57:46.621Z,71.43
2022-09-23T08:01:14.770Z,71.37
2022-09-23T08:04:42.475Z,71.07
2022-09-23T08:08:09.300Z,71.01
2022-09-23T08:11:42.011Z,70.83
2022-09-23T08:15:10.227Z,70.54
2022-09-23T08:18:37.353Z,70.28
2022-09-23T08:22:04.046Z,70.22
2022-09-23T08:25:34.335Z,70.05
2022-09-23T08:29:02.614Z,69.89
2022-09-23T08:32:29.358Z,69.69
2022-09-23T08:36:00.083Z,69.42
2022-09-23T08:39:27.154Z,69.22
2022-09-23T08:42:54.039Z,69.29
2022-09-23T08:46:28.120Z,69.07
2022-09-23T08:50:07.665Z,69.10
2022-09-23T08:53:37.513Z,69.13
2022-09-23T08:57:07.182Z,68.93
2022-09-23T09:00:40.171Z,68.62
2022-09-23T09:04:23.291Z,68.48
2022-09-23T09:07:50.823Z,68.52
2022-09-23T09:11:19.459Z,68.26
2022-09-23T09:14:59.254Z,67.74
2022-09-23T09:18:27.462Z,67.71
2022-09-23T09:21:56.454Z,67.60
2022-09-23T09:25:34.471Z,67.42
2022-09-23T09:29:30.757Z,67.22
2022-09-23T09:32:59.541Z,66.73
2022-09-23T09:36:36.264Z,66.63
2022-09-23T09:40:03.620Z,66.43
2022-09-23T09:43:32.361Z,66.13
2022-09-23T09:47:21.176Z,65.86
2022-09-23T09:50:52.891Z,65.97
2022-09-23T09:54:27.277Z,65.62
2022-09-23T09:58:02.006Z,65.05
2022-09-23T10:01:31.659Z,64.51
2022-09-23T10:05:01.808Z,64.47
2022-09-23T10:08:35.336Z,64.49
2022-09-23T10:12:18.815Z,64.33
2022-09-23T10:15:46.919Z,64.25
2022-09-23T10:19:28.676Z,63.86
2022-09-23T10:22:56.994Z,63.61
2022-09-23T10:26:33.808Z,63.60
2022-09-23T10:30:21.951Z,63.37
2022-09-23T10:33:54.841Z,63.25
2022-09-23T10:37:28.247Z,63.10
2022-09-23T10:41:15.379Z,62.74
2022-09-23T10:45:11.927Z,62.24
2022-09-23T10:48:52.003Z,61.97
2022-09-23T10:52:36.982Z,61.94
2022-09-23T10:56:17.323Z,61.86
2022-09-23T10:59:57.305Z,61.48
2022-09-23T11:03:49.491Z,61.38
2022-09-23T11:07:26.539Z,61.31
2022-09-23T11:11:13.745Z,60.78
2022-09-23T11:15:18.932Z,60.69
2022-09-23T11:19:05.986Z,60.82
2022-09-23T11:22:57.534Z,60.75
2022-09-23T11:26:41.180Z,60.51
2022-09-23T11:30:24.448Z,59.95
2022-09-23T11:34:11.564Z,59.78
2022-09-23T11:37:44.227Z,59.70
2022-09-23T11:41:24.471Z,59.19
2022-09-23T11:44:59.714Z,59.01
2022-09-23T11:48:32.555Z,58.33
2022-09-23T11:52:09.827Z,57.69
2022-09-23T11:55:55.493Z,57.73
2022-09-23T11:59:40.659Z,57.65
2022-09-23T12:03:11.993Z,57.47
2022-09-23T12:06:47.072Z,57.35
2022-09-23T12:10:17.507Z,56.90
2022-09-23T12:13:58.388Z,56.55
2022-09-23T12:17:40.204Z,56.06
2022-09-23T12:21:49.108Z,56.19
2022-09-23T12:25:34.931Z,56.11
2022-09-23T12:29:06.998Z,55.78
2022-09-23T12:32:35.391Z,55.32
2022-09-23T12:36:08.503Z,55.33
2022-09-23T12:39:38.826Z,55.07
2022-09-23T12:43:05.912Z,54.70
2022-09-23T12:46:33.337Z,54.36
2022-09-23T12:50:01.624Z,53.96
2022-09-23T12:53:55.739Z,53.74
2022-09-23T12:57:44.144Z,53.57
2022-09-23T13:01:19.869Z,53.30
2022-09-23T13:05:18.458Z,52.65
2022-09-23T13:08:47.596Z,52.36
2022-09-23T13:12:23.063Z,52.55
2022-09-23T13:15:51.376Z,52.22
2022-09-23T13:19:50.381Z,51.85
2022-09-23T13:23:35.892Z,51.74
2022-09-23T13:27:14.673Z,51.47
2022-09-23T13:30:52.564Z,51.10
2022-09-23T13:34:23.264Z,51.13
2022-09-23T13:37:54.598Z,50.56
2022-09-23T13:41:28.876Z,50.48
2022-09-23T13:44:59.484Z,50.65
2022-09-23T13:48:29.602Z,50.12
2022-09-23T13:51:58.034Z,49.22
2022-09-23T13:55:30.402Z,49.50
2022-09-23T13:59:24.314Z,48.97
2022-09-23T14:02:53.354Z,48.94
2022-09-23T14:06:31.291Z,48.45
2022-09-23T14:09:58.900Z,48.23
2022-09-23T14:13:36.816Z,48.14
2022-09-23T14:17:05.219Z,48.11
2022-09-23T14:20:35.088Z,48.12
2022-09-23T14:24:13.681Z,48.03
2022-09-23T14:27:42.291Z,48.11
2022-09-23T14:31:09.517Z,47.99
2022-09-23T14:34:55.055Z,47.96
2022-09-23T14:38:48.348Z,48.18
2022-09-23T14:42:17.388Z,48.44
2022-09-23T14:45:47.627Z,48.42
2022-09-23T14:49:19.524Z,48.46
2022-09-23T14:52:53.589Z,48.61
2022-09-23T14:56:23.119Z,48.83
2022-09-23T14:59:56.232Z,48.46
2022-09-23T15:03:23.828Z,48.48
2022-09-23T15:06:56.276Z,48.21
2022-09-23T15:10:28.561Z,48.41
2022-09-23T15:13:58.117Z,48.52
2022-09-23T15:17:35.264Z,48.50
2022-09-23T15:21:11.121Z,48.69
2022-09-23T15:24:45.245Z,48.83
2022-09-23T15:28:27.759Z,48.85
2022-09-23T15:32:00.623Z,48.98
2022-09-23T15:35:28.286Z,49.08
2022-09-23T15:38:57.981Z,49.26
2022-09-23T15:42:26.540Z,49.35
2022-09-23T15:45:57.364Z,49.46
2022-09-23T15:49:34.377Z,49.57
2022-09-23T15:53:06.454Z,49.68
2022-09-23T15:56:35.362Z,49.74
2022-09-23T16:00:04.125Z,49.91
2022-09-23T16:03:40.443Z,50.12
2022-09-23T16:07:10.738Z,50.31
2022-09-23T16:10:41.215Z,50.40
2022-09-23T16:14:11.453Z,50.68
2022-09-23T16:17:39.894Z,50.79
2022-09-23T16:21:12.418Z,50.92
2022-09-23T16:24:44.068Z,51.11
2022-09-23T16:28:11.134Z,51.26
2022-09-23T16:31:39.063Z,51.61
2022-09-23T16:35:08.156Z,51.68
2022-09-23T16:38:39.838Z,51.95
2022-09-23T16:42:07.691Z,52.06
2022-09-23T16:45:35.034Z,52.48
2022-09-23T16:49:02.582Z,52.43
2022-09-23T16:52:31.886Z,52.59
2022-09-23T16:56:01.557Z,52.88
2022-09-23T16:59:49.215Z,53.21
2022-09-23T17:03:34.053Z,53.47
2022-09-23T17:07:01.467Z,53.47
2022-09-23T17:10:28.912Z,53.72
2022-09-23T17:13:56.915Z,54.23
2022-09-23T17:17:23.765Z,54.27
2022-09-23T17:21:00.289Z,54.18
2022-09-23T17:24:27.752Z,54.81
2022-09-23T17:27:56.596Z,54.70
2022-09-23T17:31:24.772Z,54.85
2022-09-23T17:34:51.631Z,55.21
2022-09-23T17:38:18.566Z,55.28
2022-09-23T17:41:46.940Z,55.58
2022-09-23T17:45:14.168Z,55.87
2022-09-23T17:48:44.427Z,55.90
2022-09-23T17:52:13.784Z,56.11
2022-09-23T17:55:44.549Z,56.04
2022-09-23T17:59:17.594Z,56.32
2022-09-23T18:02:45.123Z,56.39
2022-09-23T18:06:17.157Z,56.50
2022-09-23T18:09:44.658Z,56.63
2022-09-23T18:13:11.654Z,56.58
2022-09-23T18:16:42.295Z,56.68
2022-09-23T18:20:12.540Z,56.73
2022-09-23T18:23:39.340Z,56.96
2022-09-23T18:27:08.081Z,57.12
2022-09-23T18:30:35.105Z,57.16
2022-09-23T18:34:03.592Z,57.30
2022-09-23T18:37:33.721Z,57.39
2022-09-23T18:41:04.796Z,57.59
2022-09-23T18:44:34.106Z,57.60
2022-09-23T18:48:18.731Z,57.81
2022-09-23T18:51:54.819Z,57.90
2022-09-23T18:55:23.064Z,57.98
2022-09-23T18:58:52.789Z,58.23
2022-09-23T19:02:20.139Z,58.18
2022-09-23T19:05:47.112Z,58.22
2022-09-23T19:09:16.052Z,58.33
2022-09-23T19:12:43.217Z,58.44
2022-09-23T19:16:12.812Z,58.48
2022-09-23T19:19:40.577Z,58.56
2022-09-23T19:23:08.151Z,58.45
2022-09-23T19:26:37.812Z,58.64
2022-09-23T19:30:07.444Z,58.55
2022-09-23T19:33:33.827Z,58.65
2022-09-23T19:37:01.693Z,58.80
2022-09-23T19:40:29.932Z,58.93
2022-09-23T19:44:03.863Z,59.05
2022-09-23T19:47:32.344Z,59.16
2022-09-23T19:50:59.475Z,59.26
2022-09-23T19:54:27.838Z,59.24
2022-09-23T19:57:55.785Z,59.55
2022-09-23T20:01:22.475Z,59.51
2022-09-23T20:04:51.535Z,59.57
2022-09-23T20:08:20.292Z,59.57
2022-09-23T20:11:47.353Z,59.72
2022-09-23T20:15:15.255Z,59.92
2022-09-23T20:18:44.526Z,59.91
2022-09-23T20:22:32.955Z,60.22
2022-09-23T20:26:19.804Z,60.29
2022-09-23T20:29:47.055Z,60.26
2022-09-23T20:33:15.995Z,60.63
2022-09-23T20:36:43.881Z,60.27
2022-09-23T20:40:12.421Z,60.29
2022-09-23T20:43:40.037Z,60.49
2022-09-23T20:47:09.020Z,60.49
2022-09-23T20:50:36.363Z,60.81
2022-09-23T20:54:04.394Z,60.78
2022-09-23T20:57:31.743Z,60.97
2022-09-23T21:01:04.121Z,60.96
2022-09-23T21:04:32.175Z,61.12
2022-09-23T21:08:02.819Z,61.53
2022-09-23T21:11:30.964Z,61.41
2022-09-23T21:14:58.017Z,61.59
2022-09-23T21:18:25.632Z,61.66
2022-09-23T21:21:52.524Z,61.76
2022-09-23T21:25:28.799Z,62.07
2022-09-23T21:28:59.260Z,61.81
2022-09-23T21:32:26.295Z,61.73
2022-09-23T21:35:58.388Z,62.01
2022-09-23T21:39:29.924Z,61.88
2022-09-23T21:43:00.898Z,61.88
2022-09-23T21:46:28.517Z,62.25
2022-09-23T21:49:55.648Z,61.98
2022-09-23T21:53:23.908Z,62.14
2022-09-23T21:56:50.960Z,62.25
2022-09-23T22:00:20.890Z,62.26
2022-09-23T22:03:50.817Z,62.39
2022-09-23T22:07:17.779Z,62.45
2022-09-23T22:10:45.225Z,62.66
2022-09-23T22:14:14.547Z,62.68
2022-09-23T22:17:42.116Z,62.51
2022-09-23T22:21:10.292Z,62.86
2022-09-23T22:24:37.125Z,63.21
2022-09-23T22:28:21.890Z,62.78
2022-09-23T22:32:05.987Z,63.27
2022-09-23T22:35:32.732Z,62.98
2022-09-23T22:39:03.217Z,62.84
2022-09-23T22:42:30.780Z,62.94
2022-09-23T22:45:57.581Z,63.22
2022-09-23T22:49:25.252Z,63.05
2022-09-23T22:52:56.095Z,63.16
2022-09-23T22:56:23.332Z,63.24
2022-09-23T22:59:50.201Z,63.60
2022-09-23T23:03:20.710Z,63.17
2022-09-23T23:06:48.925Z,63.42
2022-09-23T23:10:17.214Z,63.45
2022-09-23T23:13:44.673Z,63.64
2022-09-23T23:17:11.261Z,63.66
2022-09-23T23:20:38.140Z,63.81
2022-09-23T23:24:06.570Z,64.11
2022-09-23T23:27:33.199Z,64.11
2022-09-23T23:31:05.902Z,64.09
2022-09-23T23:34:34.165Z,64.32
2022-09-23T23:38:00.500Z,64.33
2022-09-23T23:41:28.183Z,64.21
2022-09-23T23:44:55.434Z,64.62
2022-09-23T23:48:22.947Z,64.56
2022-09-23T23:51:50.359Z,64.72
2022-09-23T23:55:17.864Z,64.85
2022-09-23T23:58:45.782Z,64.56
